createdAt,value
2019-04-26T00:00:52.019Z,94.50
2019-04-26T00:03:24.110Z,94.40
2019-04-26T00:05:54.607Z,94.60
2019-04-26T00:08:24.550Z,94.40
2019-04-26T00:10:56.386Z,94.10
2019-04-26T00:13:44.858Z,94.10
2019-04-26T00:16:25.466Z,94.10
2019-04-26T00:18:55.631Z,94.30
2019-04-26T00:21:25.763Z,94.40
2019-04-26T00:23:56.325Z,94.50
2019-04-26T00:26:26.754Z,94.40
2019-04-26T00:29:11.253Z,94.50
2019-04-26T00:31:41.422Z,94.50
2019-04-26T00:34:12.605Z,94.60
2019-04-26T00:36:43.795Z,94.70
2019-04-26T00:39:14.344Z,94.80
2019-04-26T00:41:45.883Z,94.80
2019-04-26T00:44:16.599Z,94.80
2019-04-26T00:46:48.844Z,95.00
2019-04-26T00:49:21.256Z,94.80
2019-04-26T00:51:51.743Z,94.80
2019-04-26T00:54:24.364Z,94.70
2019-04-26T00:56:56.178Z,94.50
2019-04-26T00:59:28.251Z,94.50
2019-04-26T01:02:02.835Z,95.00
2019-04-26T01:04:32.071Z,94.40
2019-04-26T01:07:01.943Z,94.60
2019-04-26T01:09:31.991Z,94.50
2019-04-26T01:12:02.078Z,94.30
2019-04-26T01:14:32.207Z,94.10
2019-04-26T01:17:02.285Z,93.90
2019-04-26T01:19:34.679Z,93.50
2019-04-26T01:22:07.689Z,93.50
2019-04-26T01:24:40.743Z,93.40
2019-04-26T01:27:12.414Z,93.30
2019-04-26T01:29:44.195Z,93.10
2019-04-26T01:32:15.282Z,93.10
2019-04-26T01:34:47.165Z,93.40
2019-04-26T01:37:19.223Z,93.30
2019-04-26T01:39:54.548Z,93.70
2019-04-26T01:42:30.347Z,93.60
2019-04-26T01:45:16.946Z,93.70
2019-04-26T01:47:49.836Z,94.10
2019-04-26T01:50:23.562Z,93.90
2019-04-26T01:52:56.119Z,93.80
2019-04-26T01:55:29.162Z,93.80
2019-04-26T01:58:04.679Z,94.00
2019-04-26T02:00:38.587Z,93.90
2019-04-26T02:03:16.489Z,93.90
2019-04-26T02:05:49.956Z,93.60
2019-04-26T02:08:23.422Z,93.50
2019-04-26T02:10:58.217Z,93.50
2019-04-26T02:13:33.016Z,93.40
2019-04-26T02:16:06.653Z,93.40
2019-04-26T02:18:40.252Z,93.30
2019-04-26T02:21:14.478Z,93.20
2019-04-26T02:24:04.045Z,93.00
2019-04-26T02:26:41.335Z,92.90
2019-04-26T02:29:17.395Z,92.50
2019-04-26T02:31:52.226Z,92.50
2019-04-26T02:34:29.032Z,92.70
2019-04-26T02:37:02.322Z,92.80
2019-04-26T02:39:41.646Z,92.80
2019-04-26T02:42:34.002Z,92.80
2019-04-26T02:45:22.016Z,92.80
2019-04-26T02:48:13.437Z,92.80
2019-04-26T02:50:50.430Z,92.70
2019-04-26T02:53:42.931Z,92.70
2019-04-26T02:56:32.210Z,92.80
2019-04-26T02:59:14.305Z,92.70
2019-04-26T03:01:50.600Z,92.90
2019-04-26T03:04:24.703Z,92.90
2019-04-26T03:07:03.580Z,93.10
2019-04-26T03:09:35.090Z,93.10
2019-04-26T03:12:16.990Z,93.10
2019-04-26T03:15:13.320Z,93.10
2019-04-26T03:17:47.241Z,93.10
2019-04-26T03:20:24.230Z,93.10
2019-04-26T03:23:10.297Z,93.00
2019-04-26T03:25:54.766Z,93.00
2019-04-26T03:28:45.572Z,93.00
2019-04-26T03:31:51.929Z,92.90
2019-04-26T03:34:18.016Z,92.70
2019-04-26T03:37:21.031Z,92.60
2019-04-26T03:39:55.279Z,92.60
2019-04-26T03:42:46.872Z,92.70
2019-04-26T03:45:42.113Z,92.80
2019-04-26T03:48:20.770Z,92.70
2019-04-26T03:51:28.638Z,92.60
2019-04-26T03:54:08.076Z,92.50
2019-04-26T03:56:45.527Z,92.40
2019-04-26T03:59:24.497Z,92.40
2019-04-26T04:02:01.172Z,92.70
2019-04-26T04:04:43.432Z,93.00
2019-04-26T04:07:18.820Z,93.10
2019-04-26T04:09:54.267Z,93.20
2019-04-26T04:12:32.170Z,93.20
2019-04-26T04:15:38.110Z,93.30
2019-04-26T04:18:15.187Z,93.60
2019-04-26T04:21:09.512Z,93.40
2019-04-26T04:23:48.765Z,93.20
2019-04-26T04:26:26.047Z,93.10
2019-04-26T04:29:07.819Z,93.30
2019-04-26T04:31:44.198Z,93.30
2019-04-26T04:34:25.908Z,93.30
2019-04-26T04:37:01.220Z,93.20
2019-04-26T04:39:44.850Z,93.20
2019-04-26T04:42:43.609Z,93.30
2019-04-26T04:45:45.508Z,93.30
2019-04-26T04:48:36.120Z,93.10
2019-04-26T04:51:34.910Z,93.20
2019-04-26T04:54:29.395Z,93.20
2019-04-26T04:57:17.493Z,93.20
2019-04-26T05:00:03.023Z,92.80
2019-04-26T05:03:06.281Z,92.40
2019-04-26T05:06:07.325Z,92.30
2019-04-26T05:08:55.947Z,92.00
2019-04-26T05:11:29.006Z,92.10
2019-04-26T05:14:02.021Z,92.10
2019-04-26T05:16:52.739Z,92.20
2019-04-26T05:19:34.659Z,92.20
2019-04-26T05:22:19.884Z,92.40
2019-04-26T05:25:40.185Z,92.30
2019-04-26T05:28:16.991Z,92.70
2019-04-26T05:31:12.276Z,93.10
2019-04-26T05:33:43.019Z,92.90
2019-04-26T05:36:17.727Z,92.80
2019-04-26T05:38:53.334Z,92.90
2019-04-26T05:41:52.073Z,92.70
2019-04-26T05:44:45.787Z,92.40
2019-04-26T05:47:26.390Z,92.40
2019-04-26T05:50:41.184Z,92.40
2019-04-26T05:53:55.767Z,92.10
2019-04-26T05:57:03.236Z,92.10
2019-04-26T05:59:52.309Z,92.00
2019-04-26T06:02:35.739Z,91.90
2019-04-26T06:05:22.199Z,91.90
2019-04-26T06:08:31.720Z,92.00
2019-04-26T06:11:08.939Z,91.70
2019-04-26T06:13:52.300Z,91.60
2019-04-26T06:16:47.551Z,91.50
2019-04-26T06:19:43.031Z,91.10
2019-04-26T06:22:16.147Z,91.10
2019-04-26T06:25:07.226Z,91.10
2019-04-26T06:27:47.470Z,90.90
2019-04-26T06:30:44.960Z,90.40
2019-04-26T06:33:15.658Z,90.00
2019-04-26T06:35:48.982Z,90.10
2019-04-26T06:38:49.176Z,90.00
2019-04-26T06:42:06.066Z,90.00
2019-04-26T06:44:52.311Z,90.10
2019-04-26T06:47:32.426Z,89.60
2019-04-26T06:50:10.066Z,89.60
2019-04-26T06:53:01.550Z,89.60
2019-04-26T06:55:38.834Z,89.70
2019-04-26T06:58:13.513Z,89.40
2019-04-26T07:00:57.564Z,89.00
2019-04-26T07:03:51.611Z,89.20
2019-04-26T07:06:35.161Z,89.10
2019-04-26T07:09:14.063Z,88.60
2019-04-26T07:12:15.790Z,88.10
2019-04-26T07:15:03.877Z,88.00
2019-04-26T07:17:51.716Z,88.30
2019-04-26T07:20:33.631Z,88.10
2019-04-26T07:23:23.104Z,87.20
2019-04-26T07:26:18.270Z,85.70
2019-04-26T07:28:51.388Z,86.80
2019-04-26T07:31:40.471Z,86.40
2019-04-26T07:34:29.835Z,87.20
2019-04-26T07:37:20.610Z,87.00
2019-04-26T07:40:11.475Z,86.80
2019-04-26T07:42:55.051Z,87.20
2019-04-26T07:45:47.875Z,87.50
2019-04-26T07:48:23.911Z,87.90
2019-04-26T07:51:16.243Z,88.20
2019-04-26T07:54:22.135Z,88.40
2019-04-26T07:57:14.418Z,88.40
2019-04-26T08:00:17.445Z,88.50
2019-04-26T08:02:55.111Z,88.50
2019-04-26T08:05:44.310Z,88.10
2019-04-26T08:08:17.434Z,88.10
2019-04-26T08:10:59.502Z,88.10
2019-04-26T08:13:32.567Z,87.60
2019-04-26T08:16:22.099Z,86.60
2019-04-26T08:19:02.471Z,85.70
2019-04-26T08:21:36.255Z,85.80
2019-04-26T08:24:12.441Z,84.80
2019-04-26T08:26:44.820Z,84.70
2019-04-26T08:29:17.587Z,84.70
2019-04-26T08:31:53.622Z,84.50
2019-04-26T08:34:29.744Z,84.60
2019-04-26T08:37:04.210Z,85.80
2019-04-26T08:39:44.923Z,84.50
2019-04-26T08:42:11.883Z,84.60
2019-04-26T08:44:42.979Z,84.50
2019-04-26T08:47:21.230Z,84.30
2019-04-26T08:49:51.411Z,83.90
2019-04-26T08:52:23.908Z,84.40
2019-04-26T08:54:56.470Z,84.60
2019-04-26T08:57:29.840Z,85.30
2019-04-26T09:00:02.259Z,85.20
2019-04-26T09:02:47.101Z,85.40
2019-04-26T09:05:24.902Z,84.50
2019-04-26T09:07:58.922Z,84.80
2019-04-26T09:10:31.887Z,85.00
2019-04-26T09:13:03.739Z,85.30
2019-04-26T09:15:57.643Z,85.60
2019-04-26T09:18:27.871Z,84.90
2019-04-26T09:20:58.072Z,84.70
2019-04-26T09:23:44.351Z,84.90
2019-04-26T09:26:26.752Z,84.50
2019-04-26T09:29:14.843Z,84.10
2019-04-26T09:31:50.583Z,84.40
2019-04-26T09:34:25.520Z,85.00
2019-04-26T09:36:55.462Z,85.20
2019-04-26T09:39:25.915Z,84.70
2019-04-26T09:41:57.539Z,85.10
2019-04-26T09:44:41.557Z,85.60
2019-04-26T09:47:14.546Z,85.70
2019-04-26T09:50:02.615Z,85.80
2019-04-26T09:52:34.449Z,85.70
2019-04-26T09:55:07.053Z,85.90
2019-04-26T09:57:37.098Z,86.20
2019-04-26T10:00:14.281Z,86.90
2019-04-26T10:02:43.051Z,86.80
2019-04-26T10:05:13.637Z,86.90
2019-04-26T10:07:43.691Z,87.80
2019-04-26T10:10:22.664Z,89.30
2019-04-26T10:13:05.798Z,90.70
2019-04-26T10:15:38.998Z,91.70
2019-04-26T10:18:09.175Z,91.70
2019-04-26T10:20:39.178Z,91.40
2019-04-26T10:23:09.226Z,91.40
2019-04-26T10:25:39.377Z,92.40
2019-04-26T10:28:11.735Z,92.30
2019-04-26T10:30:42.399Z,93.00
2019-04-26T10:33:13.420Z,93.40
2019-04-26T10:35:43.456Z,94.00
2019-04-26T10:38:13.474Z,93.50
2019-04-26T10:40:43.515Z,93.50
2019-04-26T10:43:13.811Z,93.70
2019-04-26T10:45:45.894Z,94.00
2019-04-26T10:48:15.753Z,91.90
2019-04-26T10:50:45.813Z,92.20
2019-04-26T10:53:30.233Z,92.50
2019-04-26T10:56:05.618Z,91.70
2019-04-26T10:58:44.175Z,91.60
2019-04-26T11:01:15.899Z,91.70
2019-04-26T11:03:46.026Z,91.70
2019-04-26T11:06:16.315Z,92.10
2019-04-26T11:08:46.356Z,92.30
2019-04-26T11:11:16.479Z,90.70
2019-04-26T11:13:46.599Z,90.20
2019-04-26T11:16:16.823Z,90.30
2019-04-26T11:18:46.914Z,86.50
2019-04-26T11:21:20.838Z,87.60
2019-04-26T11:23:49.986Z,87.00
2019-04-26T11:26:20.192Z,88.10
2019-04-26T11:28:51.366Z,90.60
2019-04-26T11:31:23.451Z,91.00
2019-04-26T11:34:04.622Z,90.00
2019-04-26T11:36:25.230Z,90.00
2019-04-26T11:38:55.290Z,90.10
2019-04-26T11:41:25.335Z,90.10
2019-04-26T11:43:55.333Z,88.80
2019-04-26T11:46:29.257Z,86.20
2019-04-26T11:48:59.208Z,82.20
2019-04-26T11:51:28.874Z,79.10
2019-04-26T11:53:58.950Z,81.40
2019-04-26T11:56:29.019Z,81.80
2019-04-26T11:58:58.967Z,83.70
2019-04-26T12:01:30.271Z,83.60
2019-04-26T12:04:16.864Z,82.90
2019-04-26T12:06:51.317Z,82.90
2019-04-26T12:09:34.197Z,84.10
2019-04-26T12:12:05.397Z,84.00
2019-04-26T12:14:36.761Z,84.10
2019-04-26T12:17:06.955Z,86.10
2019-04-26T12:19:37.105Z,86.70
2019-04-26T12:22:08.368Z,86.30
2019-04-26T12:24:39.128Z,85.80
2019-04-26T12:27:10.322Z,85.00
2019-04-26T12:29:44.252Z,82.20
2019-04-26T12:32:12.372Z,79.60
2019-04-26T12:34:42.527Z,79.00
2019-04-26T12:37:19.780Z,79.00
2019-04-26T12:39:44.414Z,76.20
2019-04-26T12:42:14.783Z,75.60
2019-04-26T12:44:46.507Z,75.80
2019-04-26T12:47:23.667Z,75.40
2019-04-26T12:49:54.551Z,74.80
2019-04-26T12:52:25.347Z,75.20
2019-04-26T12:54:57.624Z,75.00
2019-04-26T12:57:27.209Z,73.50
2019-04-26T12:59:57.604Z,71.90
2019-04-26T13:02:29.151Z,68.20
2019-04-26T13:04:59.283Z,63.60
2019-04-26T13:07:29.501Z,61.30
2019-04-26T13:10:06.864Z,60.60
2019-04-26T13:12:47.246Z,57.80
2019-04-26T13:15:58.662Z,54.70
2019-04-26T13:18:29.889Z,51.00
2019-04-26T13:21:03.095Z,50.10
2019-04-26T13:23:31.895Z,50.60
2019-04-26T13:26:01.991Z,48.90
2019-04-26T13:28:32.105Z,47.60
2019-04-26T13:31:02.676Z,49.00
2019-04-26T13:33:33.861Z,50.10
2019-04-26T13:36:04.158Z,48.00
2019-04-26T13:38:34.289Z,50.20
2019-04-26T13:41:06.266Z,54.00
2019-04-26T13:43:36.507Z,54.80
2019-04-26T13:46:23.359Z,57.00
2019-04-26T13:49:01.741Z,57.50
2019-04-26T13:51:35.406Z,61.10
2019-04-26T13:54:05.528Z,61.00
2019-04-26T13:56:35.963Z,62.60
2019-04-26T13:59:07.288Z,62.90
2019-04-26T14:01:37.435Z,60.60
2019-04-26T14:04:08.920Z,60.90
2019-04-26T14:06:40.816Z,60.40
2019-04-26T14:09:12.662Z,62.20
2019-04-26T14:11:44.117Z,63.10
2019-04-26T14:14:14.227Z,64.40
2019-04-26T14:16:44.491Z,62.90
2019-04-26T14:19:16.668Z,62.00
2019-04-26T14:21:46.382Z,60.40
2019-04-26T14:24:25.051Z,61.30
2019-04-26T14:26:59.262Z,58.30
2019-04-26T14:29:32.499Z,60.10
2019-04-26T14:32:01.003Z,60.00
2019-04-26T14:34:31.157Z,61.00
2019-04-26T14:37:06.619Z,57.90
2019-04-26T14:39:49.286Z,57.90
2019-04-26T14:42:04.689Z,57.80
2019-04-26T14:44:35.287Z,57.70
2019-04-26T14:47:13.961Z,59.20
2019-04-26T14:49:39.202Z,58.40
2019-04-26T14:52:08.751Z,58.70
2019-04-26T14:54:41.535Z,60.80
2019-04-26T14:57:15.578Z,59.20
2019-04-26T14:59:46.808Z,59.80
2019-04-26T15:02:33.300Z,60.60
2019-04-26T15:05:12.308Z,60.10
2019-04-26T15:07:49.491Z,61.20
2019-04-26T15:10:15.806Z,60.90
2019-04-26T15:12:48.423Z,59.90
2019-04-26T15:15:17.570Z,60.20
2019-04-26T15:17:47.630Z,56.50
2019-04-26T15:20:20.877Z,55.70
2019-04-26T15:22:50.139Z,55.00
2019-04-26T15:25:20.183Z,54.70
2019-04-26T15:27:52.104Z,53.70
2019-04-26T15:30:22.068Z,52.80
2019-04-26T15:32:53.638Z,54.40
2019-04-26T15:35:23.775Z,54.90
2019-04-26T15:37:57.467Z,54.40
2019-04-26T15:40:35.993Z,54.40
2019-04-26T15:43:14.243Z,52.80
2019-04-26T15:45:57.138Z,50.40
2019-04-26T15:48:28.851Z,50.20
2019-04-26T15:50:58.900Z,51.80
2019-04-26T15:53:28.903Z,53.30
2019-04-26T15:55:59.026Z,55.10
2019-04-26T15:58:29.168Z,54.90
2019-04-26T16:00:59.351Z,55.00
2019-04-26T16:03:29.525Z,55.40
2019-04-26T16:06:06.917Z,55.10
2019-04-26T16:08:35.111Z,55.40
2019-04-26T16:11:03.087Z,56.40
2019-04-26T16:13:33.067Z,56.40
2019-04-26T16:16:03.835Z,55.20
2019-04-26T16:18:34.118Z,56.30
2019-04-26T16:21:04.227Z,56.60
2019-04-26T16:23:41.049Z,56.40
2019-04-26T16:26:08.315Z,56.90
2019-04-26T16:28:44.385Z,58.10
2019-04-26T16:31:15.634Z,56.90
2019-04-26T16:33:56.287Z,56.50
2019-04-26T16:36:28.358Z,57.60
2019-04-26T16:38:58.491Z,55.60
2019-04-26T16:41:33.815Z,55.30
2019-04-26T16:44:00.491Z,54.60
2019-04-26T16:46:30.579Z,53.00
2019-04-26T16:49:02.307Z,51.50
2019-04-26T16:51:34.053Z,50.10
2019-04-26T16:54:08.713Z,50.40
2019-04-26T16:56:36.109Z,50.80
2019-04-26T16:59:07.195Z,51.00
2019-04-26T17:01:38.217Z,50.30
2019-04-26T17:04:11.242Z,50.70
2019-04-26T17:06:44.642Z,51.00
2019-04-26T17:09:14.353Z,50.90
2019-04-26T17:11:43.921Z,50.10
2019-04-26T17:14:14.040Z,49.70
2019-04-26T17:16:44.417Z,49.90
2019-04-26T17:19:14.518Z,49.60
2019-04-26T17:21:47.170Z,50.10
2019-04-26T17:24:18.810Z,50.30
2019-04-26T17:26:53.506Z,49.60
2019-04-26T17:29:23.508Z,49.80
2019-04-26T17:31:53.683Z,49.00
2019-04-26T17:34:28.847Z,49.00
2019-04-26T17:36:56.316Z,49.20
2019-04-26T17:39:26.418Z,48.30
2019-04-26T17:41:56.427Z,47.90
2019-04-26T17:44:28.199Z,47.10
2019-04-26T17:47:00.202Z,47.10
2019-04-26T17:49:34.326Z,47.00
2019-04-26T17:52:02.094Z,47.30
2019-04-26T17:54:46.073Z,47.50
2019-04-26T17:57:09.051Z,47.10
2019-04-26T17:59:45.157Z,47.60
2019-04-26T18:02:24.106Z,47.60
2019-04-26T18:04:43.000Z,48.00
2019-04-26T18:07:36.257Z,47.80
2019-04-26T18:09:46.818Z,48.70
2019-04-26T18:12:16.533Z,48.70
2019-04-26T18:14:46.901Z,49.20
2019-04-26T18:17:23.155Z,50.00
2019-04-26T18:20:06.483Z,50.60
2019-04-26T18:22:40.768Z,50.90
2019-04-26T18:25:13.061Z,51.30
2019-04-26T18:27:43.491Z,51.20
2019-04-26T18:30:14.366Z,51.40
2019-04-26T18:32:47.733Z,51.40
2019-04-26T18:35:16.911Z,51.70
2019-04-26T18:37:47.119Z,51.80
2019-04-26T18:40:20.278Z,52.00
2019-04-26T18:42:49.209Z,51.90
2019-04-26T18:45:28.036Z,52.10
2019-04-26T18:47:54.793Z,51.90
2019-04-26T18:50:23.768Z,52.00
2019-04-26T18:53:14.009Z,51.50
2019-04-26T18:55:45.751Z,51.50
2019-04-26T18:58:15.912Z,51.80
2019-04-26T19:00:46.110Z,52.30
2019-04-26T19:03:16.208Z,52.30
2019-04-26T19:05:47.145Z,52.40
2019-04-26T19:08:20.891Z,52.90
2019-04-26T19:10:59.192Z,53.60
2019-04-26T19:13:36.465Z,54.20
2019-04-26T19:16:15.105Z,54.20
2019-04-26T19:18:52.908Z,54.50
2019-04-26T19:21:32.343Z,55.00
2019-04-26T19:24:07.661Z,55.60
2019-04-26T19:26:35.226Z,55.60
2019-04-26T19:29:15.620Z,55.90
2019-04-26T19:31:37.176Z,57.30
2019-04-26T19:34:07.267Z,57.50
2019-04-26T19:36:37.398Z,58.90
2019-04-26T19:39:07.659Z,58.90
2019-04-26T19:41:39.366Z,59.10
2019-04-26T19:44:10.537Z,59.00
2019-04-26T19:46:44.271Z,59.40
2019-04-26T19:49:15.755Z,59.20
2019-04-26T19:52:05.465Z,59.90
2019-04-26T19:54:38.552Z,60.40
2019-04-26T19:57:13.137Z,60.80
2019-04-26T19:59:42.803Z,60.90
2019-04-26T20:02:13.373Z,61.40
2019-04-26T20:04:44.209Z,61.30
2019-04-26T20:07:14.589Z,61.80
2019-04-26T20:09:44.783Z,61.70
2019-04-26T20:12:15.007Z,62.90
2019-04-26T20:14:50.664Z,63.30
2019-04-26T20:17:19.906Z,63.20
2019-04-26T20:19:53.970Z,63.40
2019-04-26T20:22:28.128Z,63.90
2019-04-26T20:24:55.986Z,64.90
2019-04-26T20:27:27.636Z,64.60
2019-04-26T20:29:56.008Z,64.80
2019-04-26T20:32:33.644Z,65.10
2019-04-26T20:35:19.763Z,65.70
2019-04-26T20:37:51.978Z,66.60
2019-04-26T20:40:25.143Z,67.60
2019-04-26T20:43:02.055Z,67.20
2019-04-26T20:45:38.373Z,66.80
2019-04-26T20:47:57.514Z,66.50
2019-04-26T20:50:28.557Z,66.80
2019-04-26T20:53:02.044Z,67.10
2019-04-26T20:55:34.479Z,67.30
2019-04-26T20:58:05.736Z,67.10
2019-04-26T21:00:36.590Z,67.50
2019-04-26T21:03:06.563Z,67.50
2019-04-26T21:05:45.856Z,68.00
2019-04-26T21:08:09.496Z,68.00
2019-04-26T21:10:39.626Z,68.80
2019-04-26T21:13:09.814Z,69.00
2019-04-26T21:15:53.490Z,69.20
2019-04-26T21:18:12.389Z,69.30
2019-04-26T21:20:42.701Z,69.90
2019-04-26T21:23:15.235Z,70.90
2019-04-26T21:25:46.348Z,70.50
2019-04-26T21:28:17.999Z,70.80
2019-04-26T21:30:53.504Z,71.40
2019-04-26T21:33:28.596Z,71.90
2019-04-26T21:36:10.307Z,72.40
2019-04-26T21:38:47.922Z,72.00
2019-04-26T21:41:19.666Z,72.00
2019-04-26T21:43:49.677Z,72.20
2019-04-26T21:46:20.851Z,72.40
2019-04-26T21:48:50.970Z,72.10
2019-04-26T21:51:22.838Z,71.80
2019-04-26T21:53:53.079Z,72.10
2019-04-26T21:56:23.589Z,72.10
2019-04-26T21:58:54.527Z,72.40
2019-04-26T22:01:25.239Z,72.60
2019-04-26T22:03:58.317Z,72.40
2019-04-26T22:06:28.756Z,72.10
2019-04-26T22:09:03.323Z,71.50
2019-04-26T22:11:33.617Z,71.80
2019-04-26T22:14:14.120Z,71.20
2019-04-26T22:16:57.655Z,71.20
2019-04-26T22:19:32.454Z,70.90
2019-04-26T22:22:18.479Z,71.40
2019-04-26T22:24:51.045Z,71.70
2019-04-26T22:27:21.899Z,71.80
2019-04-26T22:29:55.023Z,71.70
2019-04-26T22:32:25.282Z,72.20
2019-04-26T22:34:55.471Z,72.80
2019-04-26T22:37:29.979Z,73.10
2019-04-26T22:39:57.195Z,74.60
2019-04-26T22:42:28.577Z,73.30
2019-04-26T22:45:03.354Z,73.60
2019-04-26T22:47:45.556Z,74.70
2019-04-26T22:50:20.793Z,75.60
2019-04-26T22:52:51.482Z,76.70
2019-04-26T22:55:24.607Z,77.40
2019-04-26T22:57:53.011Z,78.20
2019-04-26T23:00:29.170Z,78.70
2019-04-26T23:02:58.219Z,79.00
2019-04-26T23:05:30.572Z,79.50
2019-04-26T23:08:01.058Z,79.50
2019-04-26T23:10:34.146Z,79.30
2019-04-26T23:13:07.958Z,78.90
2019-04-26T23:15:43.287Z,78.10
2019-04-26T23:18:26.991Z,78.40
2019-04-26T23:21:15.009Z,78.50
2019-04-26T23:23:45.134Z,79.20
2019-04-26T23:26:15.146Z,79.70
2019-04-26T23:28:45.123Z,79.80
2019-04-26T23:31:15.154Z,80.00
2019-04-26T23:33:45.157Z,80.30
2019-04-26T23:36:18.306Z,80.20
2019-04-26T23:38:46.770Z,80.40
2019-04-26T23:41:16.823Z,80.90
2019-04-26T23:43:46.894Z,80.20
2019-04-26T23:46:18.825Z,80.90
2019-04-26T23:48:49.683Z,80.40
2019-04-26T23:51:19.683Z,79.70
2019-04-26T23:53:50.528Z,78.90
2019-04-26T23:56:24.674Z,78.70
2019-04-26T23:58:53.170Z,77.80
